createdAt,value
2022-07-29T00:00:00.422Z,99.90
2022-07-29T00:02:28.177Z,99.90
2022-07-29T00:04:55.288Z,99.90
2022-07-29T00:07:22.209Z,99.90
2022-07-29T00:09:50.758Z,99.90
2022-07-29T00:12:21.332Z,99.90
2022-07-29T00:14:53.664Z,99.90
2022-07-29T00:17:20.733Z,99.90
2022-07-29T00:19:47.642Z,99.90
2022-07-29T00:22:14.561Z,99.90
2022-07-29T00:24:41.449Z,99.90
2022-07-29T00:27:08.415Z,99.90
2022-07-29T00:29:35.565Z,99.90
2022-07-29T00:32:03.463Z,99.90
2022-07-29T00:34:49.409Z,99.90
2022-07-29T00:37:16.263Z,99.90
2022-07-29T00:39:43.591Z,99.90
2022-07-29T00:42:10.992Z,99.90
2022-07-29T00:44:41.783Z,99.90
2022-07-29T00:47:09.366Z,99.90
2022-07-29T00:49:36.368Z,99.90
2022-07-29T00:52:04.634Z,99.90
2022-07-29T00:54:31.537Z,99.90
2022-07-29T00:56:59.516Z,99.90
2022-07-29T00:59:35.159Z,99.90
2022-07-29T01:02:05.644Z,99.90
2022-07-29T01:04:32.715Z,99.90
2022-07-29T01:06:59.691Z,99.90
2022-07-29T01:09:35.041Z,99.90
2022-07-29T01:12:18.097Z,99.90
2022-07-29T01:14:45.478Z,99.90
2022-07-29T01:17:15.347Z,99.90
2022-07-29T01:20:04.728Z,99.90
2022-07-29T01:22:37.627Z,99.90
2022-07-29T01:25:23.337Z,99.90
2022-07-29T01:28:20.994Z,99.90
2022-07-29T01:30:51.772Z,99.90
2022-07-29T01:33:38.239Z,99.90
2022-07-29T01:36:08.604Z,99.90
2022-07-29T01:38:35.470Z,99.90
2022-07-29T01:41:16.402Z,99.90
2022-07-29T01:43:46.114Z,99.90
2022-07-29T01:46:18.808Z,99.90
2022-07-29T01:48:50.255Z,99.90
2022-07-29T01:51:28.373Z,99.90
2022-07-29T01:54:10.233Z,99.90
2022-07-29T01:56:37.418Z,99.90
2022-07-29T01:59:04.615Z,99.90
2022-07-29T02:01:32.393Z,99.90
2022-07-29T02:03:59.299Z,99.90
2022-07-29T02:06:26.150Z,99.90
2022-07-29T02:08:53.008Z,99.90
2022-07-29T02:11:19.866Z,99.90
2022-07-29T02:13:46.740Z,99.90
2022-07-29T02:16:13.684Z,99.90
2022-07-29T02:18:42.023Z,99.90
2022-07-29T02:21:15.080Z,99.90
2022-07-29T02:23:50.607Z,99.90
2022-07-29T02:26:19.232Z,99.90
2022-07-29T02:28:46.085Z,99.90
2022-07-29T02:31:13.075Z,99.90
2022-07-29T02:33:39.993Z,99.90
2022-07-29T02:36:07.061Z,99.90
2022-07-29T02:38:52.176Z,99.90
2022-07-29T02:41:39.475Z,99.90
2022-07-29T02:44:21.552Z,99.90
2022-07-29T02:46:56.977Z,99.90
2022-07-29T02:49:26.848Z,99.90
2022-07-29T02:51:59.632Z,99.90
2022-07-29T02:54:35.887Z,99.90
2022-07-29T02:57:07.486Z,99.90
2022-07-29T02:59:35.420Z,99.90
2022-07-29T03:02:02.381Z,99.90
2022-07-29T03:04:30.307Z,99.90
2022-07-29T03:06:59.117Z,99.90
2022-07-29T03:09:26.017Z,99.90
2022-07-29T03:11:55.210Z,99.90
2022-07-29T03:14:22.246Z,99.90
2022-07-29T03:16:49.607Z,99.90
2022-07-29T03:19:16.568Z,99.90
2022-07-29T03:21:43.451Z,99.90
2022-07-29T03:24:10.967Z,99.90
2022-07-29T03:26:38.040Z,99.90
2022-07-29T03:29:04.899Z,99.90
2022-07-29T03:31:33.372Z,99.90
2022-07-29T03:34:00.510Z,99.90
2022-07-29T03:36:27.496Z,99.90
2022-07-29T03:38:55.680Z,99.90
2022-07-29T03:41:22.748Z,99.90
2022-07-29T03:43:50.006Z,99.90
2022-07-29T03:46:16.986Z,99.90
2022-07-29T03:48:44.233Z,99.90
2022-07-29T03:51:11.120Z,99.90
2022-07-29T03:53:38.368Z,99.90
2022-07-29T03:56:05.385Z,99.90
2022-07-29T03:58:32.222Z,99.90
2022-07-29T04:00:59.060Z,99.90
2022-07-29T04:03:26.024Z,99.90
2022-07-29T04:06:03.701Z,99.90
2022-07-29T04:08:30.600Z,99.90
2022-07-29T04:10:57.536Z,99.90
2022-07-29T04:13:24.401Z,99.90
2022-07-29T04:15:51.287Z,99.90
2022-07-29T04:18:18.187Z,99.90
2022-07-29T04:20:45.026Z,99.90
2022-07-29T04:23:11.866Z,99.90
2022-07-29T04:25:39.852Z,99.90
2022-07-29T04:28:07.144Z,99.90
2022-07-29T04:30:34.591Z,99.90
2022-07-29T04:33:02.323Z,99.90
2022-07-29T04:35:30.195Z,99.90
2022-07-29T04:37:57.091Z,99.90
2022-07-29T04:40:23.983Z,99.90
2022-07-29T04:42:50.834Z,99.90
2022-07-29T04:45:22.338Z,99.90
2022-07-29T04:47:49.966Z,99.90
2022-07-29T04:50:16.819Z,99.90
2022-07-29T04:52:43.703Z,99.90
2022-07-29T04:55:10.653Z,99.90
2022-07-29T04:57:37.490Z,99.90
2022-07-29T05:00:05.988Z,99.90
2022-07-29T05:02:32.943Z,99.90
2022-07-29T05:04:59.798Z,99.90
2022-07-29T05:07:26.600Z,99.90
2022-07-29T05:09:54.077Z,99.90
2022-07-29T05:12:21.109Z,99.90
2022-07-29T05:14:48.013Z,99.90
2022-07-29T05:17:14.892Z,99.90
2022-07-29T05:19:41.742Z,99.90
2022-07-29T05:22:08.605Z,99.90
2022-07-29T05:24:35.486Z,99.90
2022-07-29T05:27:02.344Z,99.90
2022-07-29T05:29:43.717Z,99.90
2022-07-29T05:32:12.206Z,99.90
2022-07-29T05:34:50.426Z,99.90
2022-07-29T05:37:21.949Z,99.90
2022-07-29T05:39:56.827Z,99.90
2022-07-29T05:42:25.192Z,99.90
2022-07-29T05:44:52.092Z,99.90
2022-07-29T05:47:19.058Z,99.90
2022-07-29T05:49:46.330Z,99.90
2022-07-29T05:52:14.276Z,99.90
2022-07-29T05:54:41.142Z,99.90
2022-07-29T05:57:08.087Z,99.90
2022-07-29T05:59:38.497Z,99.90
2022-07-29T06:02:06.328Z,99.90
2022-07-29T06:04:34.674Z,99.90
2022-07-29T06:07:01.948Z,99.90
2022-07-29T06:09:29.322Z,99.90
2022-07-29T06:11:56.351Z,99.90
2022-07-29T06:14:23.199Z,99.90
2022-07-29T06:16:50.219Z,99.90
2022-07-29T06:19:17.117Z,99.90
2022-07-29T06:21:44.850Z,99.90
2022-07-29T06:24:13.875Z,99.90
2022-07-29T06:26:41.327Z,99.90
2022-07-29T06:29:08.527Z,99.90
2022-07-29T06:31:35.562Z,99.90
2022-07-29T06:34:02.400Z,99.90
2022-07-29T06:36:30.618Z,99.90
2022-07-29T06:38:57.551Z,99.90
2022-07-29T06:41:24.972Z,99.90
2022-07-29T06:43:54.533Z,99.90
2022-07-29T06:46:22.774Z,99.90
2022-07-29T06:48:50.009Z,99.90
2022-07-29T06:51:22.373Z,99.90
2022-07-29T06:53:58.182Z,99.90
2022-07-29T06:56:27.577Z,99.90
2022-07-29T06:58:54.546Z,99.90
2022-07-29T07:01:21.852Z,99.90
2022-07-29T07:03:48.910Z,99.90
2022-07-29T07:06:15.827Z,99.90
2022-07-29T07:08:42.693Z,99.90
2022-07-29T07:11:09.916Z,99.90
2022-07-29T07:13:37.181Z,99.90
2022-07-29T07:16:04.690Z,99.90
2022-07-29T07:18:31.648Z,99.90
2022-07-29T07:20:59.695Z,99.90
2022-07-29T07:23:26.551Z,99.90
2022-07-29T07:25:53.564Z,99.90
2022-07-29T07:28:24.931Z,99.90
2022-07-29T07:30:52.859Z,99.90
2022-07-29T07:33:20.037Z,99.90
2022-07-29T07:35:47.148Z,99.90
2022-07-29T07:38:14.049Z,99.90
2022-07-29T07:40:41.461Z,99.90
2022-07-29T07:43:08.365Z,99.90
2022-07-29T07:45:35.442Z,99.90
2022-07-29T07:48:02.317Z,99.90
2022-07-29T07:50:29.344Z,99.90
2022-07-29T07:52:58.942Z,99.90
2022-07-29T07:55:26.612Z,99.90
2022-07-29T07:57:53.672Z,99.90
2022-07-29T08:00:22.922Z,99.90
2022-07-29T08:02:51.325Z,99.90
2022-07-29T08:05:18.504Z,99.90
2022-07-29T08:07:46.623Z,99.90
2022-07-29T08:10:14.936Z,99.90
2022-07-29T08:12:42.906Z,99.90
2022-07-29T08:15:10.287Z,99.90
2022-07-29T08:17:37.237Z,99.90
2022-07-29T08:20:04.578Z,99.90
2022-07-29T08:22:31.446Z,99.90
2022-07-29T08:24:58.262Z,99.90
2022-07-29T08:27:42.955Z,99.90
2022-07-29T08:30:11.306Z,99.90
2022-07-29T08:32:55.009Z,99.90
2022-07-29T08:35:23.594Z,99.90
2022-07-29T08:37:50.538Z,99.90
2022-07-29T08:40:17.538Z,99.90
2022-07-29T08:42:44.451Z,99.90
2022-07-29T08:45:11.708Z,99.90
2022-07-29T08:47:40.869Z,99.90
2022-07-29T08:50:09.017Z,99.90
2022-07-29T08:52:40.027Z,99.90
2022-07-29T08:55:11.026Z,99.90
2022-07-29T08:57:38.856Z,99.90
2022-07-29T09:00:18.285Z,99.90
2022-07-29T09:02:46.746Z,99.90
2022-07-29T09:05:14.451Z,99.90
2022-07-29T09:07:44.310Z,99.90
2022-07-29T09:10:11.392Z,99.90
2022-07-29T09:12:38.513Z,99.90
2022-07-29T09:15:05.756Z,99.90
2022-07-29T09:17:46.980Z,99.90
2022-07-29T09:20:15.659Z,99.90
2022-07-29T09:22:43.012Z,99.90
2022-07-29T09:25:10.115Z,99.90
2022-07-29T09:27:37.204Z,99.90
2022-07-29T09:30:11.491Z,99.90
2022-07-29T09:32:58.293Z,99.90
2022-07-29T09:35:26.157Z,99.90
2022-07-29T09:37:53.145Z,99.90
2022-07-29T09:40:25.103Z,99.90
2022-07-29T09:42:56.614Z,99.90
2022-07-29T09:45:31.023Z,99.90
2022-07-29T09:48:01.400Z,99.90
2022-07-29T09:50:41.731Z,99.90
2022-07-29T09:53:10.552Z,99.90
2022-07-29T09:55:53.228Z,99.90
2022-07-29T09:58:21.439Z,99.90
2022-07-29T10:00:49.133Z,99.90
2022-07-29T10:03:16.986Z,99.90
2022-07-29T10:05:44.719Z,99.90
2022-07-29T10:08:13.384Z,99.90
2022-07-29T10:10:42.664Z,99.90
2022-07-29T10:13:15.194Z,99.90
2022-07-29T10:15:45.340Z,99.90
2022-07-29T10:18:12.996Z,99.90
2022-07-29T10:20:40.288Z,99.90
2022-07-29T10:23:07.398Z,99.90
2022-07-29T10:25:34.347Z,99.90
2022-07-29T10:28:01.257Z,99.90
2022-07-29T10:30:28.440Z,99.90
2022-07-29T10:33:04.411Z,99.40
2022-07-29T10:35:41.464Z,98.30
2022-07-29T10:42:08.356Z,97.30
2022-07-29T10:44:36.146Z,96.80
2022-07-29T10:47:04.486Z,98.20
2022-07-29T10:49:31.656Z,97.80
2022-07-29T10:52:11.512Z,96.80
2022-07-29T10:54:39.730Z,96.70
2022-07-29T10:57:16.373Z,97.00
2022-07-29T10:59:53.023Z,96.50
2022-07-29T11:02:41.653Z,97.50
2022-07-29T11:05:12.907Z,95.60
2022-07-29T11:10:31.415Z,96.80
2022-07-29T11:12:59.257Z,95.20
2022-07-29T11:15:28.608Z,95.10
2022-07-29T11:17:59.538Z,94.70
2022-07-29T11:20:38.303Z,93.60
2022-07-29T11:23:33.723Z,91.00
2022-07-29T11:26:14.562Z,90.00
2022-07-29T11:28:53.496Z,90.00
2022-07-29T11:31:36.432Z,90.10
2022-07-29T11:34:29.688Z,90.60
2022-07-29T11:37:12.546Z,90.50
2022-07-29T11:39:47.801Z,87.60
2022-07-29T11:42:17.953Z,87.50
2022-07-29T11:45:42.758Z,88.30
2022-07-29T11:48:05.333Z,88.00
2022-07-29T11:50:48.301Z,85.10
2022-07-29T11:53:16.218Z,83.80
2022-07-29T11:55:51.663Z,83.70
2022-07-29T11:58:25.236Z,83.50
2022-07-29T12:00:53.243Z,85.20
2022-07-29T12:03:35.138Z,83.50
2022-07-29T12:06:02.617Z,82.50
2022-07-29T12:08:29.578Z,81.90
2022-07-29T12:10:56.865Z,83.20
2022-07-29T12:13:37.152Z,83.20
2022-07-29T12:16:05.457Z,81.30
2022-07-29T12:18:32.669Z,79.70
2022-07-29T12:21:05.852Z,80.00
2022-07-29T12:23:35.812Z,79.90
2022-07-29T12:26:25.521Z,80.20
2022-07-29T12:28:52.741Z,77.90
2022-07-29T12:31:43.734Z,78.00
2022-07-29T12:34:08.411Z,77.20
2022-07-29T12:36:37.337Z,76.80
2022-07-29T12:39:04.891Z,78.20
2022-07-29T12:41:31.878Z,76.60
2022-07-29T12:43:58.752Z,76.30
2022-07-29T12:46:25.720Z,75.80
2022-07-29T12:48:57.723Z,74.50
2022-07-29T12:51:32.420Z,73.10
2022-07-29T12:54:12.721Z,72.00
2022-07-29T12:56:44.398Z,72.40
2022-07-29T12:59:22.355Z,72.80
2022-07-29T13:01:52.909Z,73.40
2022-07-29T13:04:46.105Z,73.30
2022-07-29T13:07:15.221Z,71.30
2022-07-29T13:09:46.655Z,71.70
2022-07-29T13:12:14.385Z,70.10
2022-07-29T13:14:43.415Z,71.20
2022-07-29T13:17:15.206Z,71.90
2022-07-29T13:19:43.154Z,71.10
2022-07-29T13:22:11.192Z,71.00
2022-07-29T13:25:07.707Z,69.80
2022-07-29T13:27:35.611Z,66.60
2022-07-29T13:30:05.390Z,69.20
2022-07-29T13:32:32.433Z,67.90
2022-07-29T13:35:01.619Z,67.40
2022-07-29T13:37:33.965Z,67.20
2022-07-29T13:40:01.180Z,66.40
2022-07-29T13:42:28.098Z,66.70
2022-07-29T13:44:54.946Z,66.80
2022-07-29T13:47:22.471Z,66.00
2022-07-29T13:50:00.244Z,66.60
2022-07-29T13:52:27.112Z,66.90
2022-07-29T13:54:54.000Z,66.30
2022-07-29T13:57:20.881Z,66.40
2022-07-29T13:59:53.433Z,65.60
2022-07-29T14:02:21.067Z,66.30
2022-07-29T14:04:52.166Z,66.20
2022-07-29T14:07:19.266Z,65.30
2022-07-29T14:09:46.194Z,65.40
2022-07-29T14:12:13.147Z,64.50
2022-07-29T14:14:40.099Z,64.40
2022-07-29T14:17:09.995Z,64.90
2022-07-29T14:19:37.006Z,63.80
2022-07-29T14:22:05.234Z,63.90
2022-07-29T14:24:32.377Z,62.80
2022-07-29T14:27:01.521Z,63.50
2022-07-29T14:29:36.872Z,63.80
2022-07-29T14:32:07.556Z,64.00
2022-07-29T14:34:35.778Z,63.60
2022-07-29T14:37:03.875Z,64.90
2022-07-29T14:39:31.779Z,64.90
2022-07-29T14:41:59.301Z,63.50
2022-07-29T14:44:32.267Z,63.50
2022-07-29T14:47:07.705Z,64.30
2022-07-29T14:49:35.341Z,63.20
2022-07-29T14:52:02.230Z,63.40
2022-07-29T14:54:29.342Z,63.10
2022-07-29T14:56:58.480Z,63.20
2022-07-29T14:59:26.205Z,62.70
2022-07-29T15:01:53.281Z,62.80
2022-07-29T15:04:20.373Z,63.40
2022-07-29T15:06:47.295Z,64.40
2022-07-29T15:09:14.345Z,63.20
2022-07-29T15:11:41.193Z,62.60
2022-07-29T15:14:08.140Z,63.40
2022-07-29T15:16:41.999Z,63.20
2022-07-29T15:19:11.153Z,63.00
2022-07-29T15:21:48.074Z,63.20
2022-07-29T15:24:17.402Z,63.60
2022-07-29T15:26:44.765Z,64.20
2022-07-29T15:29:11.595Z,63.50
2022-07-29T15:31:38.588Z,63.90
2022-07-29T15:34:06.557Z,64.10
2022-07-29T15:36:51.495Z,64.40
2022-07-29T15:39:19.476Z,63.50
2022-07-29T15:41:46.583Z,64.00
2022-07-29T15:44:13.847Z,64.10
2022-07-29T15:46:59.754Z,62.40
2022-07-29T15:49:48.559Z,61.90
2022-07-29T15:52:24.933Z,62.80
2022-07-29T15:54:53.845Z,61.50
2022-07-29T15:57:21.106Z,61.60
2022-07-29T15:59:47.982Z,62.20
2022-07-29T16:02:14.848Z,61.70
2022-07-29T16:04:41.701Z,60.70
2022-07-29T16:07:08.724Z,60.80
2022-07-29T16:09:35.671Z,61.00
2022-07-29T16:12:02.596Z,61.00
2022-07-29T16:14:41.589Z,61.30
2022-07-29T16:17:08.724Z,61.20
2022-07-29T16:19:41.177Z,61.80
2022-07-29T16:22:08.059Z,62.20
2022-07-29T16:24:34.994Z,61.60
2022-07-29T16:27:02.261Z,61.90
2022-07-29T16:29:29.320Z,61.60
2022-07-29T16:31:56.410Z,61.00
2022-07-29T16:34:23.353Z,61.60
2022-07-29T16:36:50.351Z,62.20
2022-07-29T16:39:17.382Z,61.30
2022-07-29T16:41:44.282Z,61.20
2022-07-29T16:44:11.165Z,61.90
2022-07-29T16:46:39.071Z,60.70
2022-07-29T16:49:08.496Z,60.80
2022-07-29T16:51:35.485Z,61.10
2022-07-29T16:54:02.331Z,60.10
2022-07-29T16:56:29.253Z,60.00
2022-07-29T16:58:58.190Z,60.30
2022-07-29T17:01:25.131Z,59.60
2022-07-29T17:04:07.217Z,60.30
2022-07-29T17:06:35.393Z,60.40
2022-07-29T17:09:03.641Z,60.90
2022-07-29T17:11:53.799Z,61.10
2022-07-29T17:14:17.382Z,60.20
2022-07-29T17:16:51.751Z,61.70
2022-07-29T17:19:27.716Z,60.90
2022-07-29T17:22:03.281Z,60.60
2022-07-29T17:24:33.863Z,63.80
2022-07-29T17:27:01.197Z,66.00
2022-07-29T17:29:28.223Z,67.60
2022-07-29T17:31:55.157Z,69.00
2022-07-29T17:34:22.025Z,69.80
2022-07-29T17:36:48.931Z,70.40
2022-07-29T17:39:15.840Z,71.50
2022-07-29T17:41:44.902Z,72.20
2022-07-29T17:44:13.142Z,72.60
2022-07-29T17:46:40.558Z,73.20
2022-07-29T17:49:07.623Z,74.00
2022-07-29T17:51:34.560Z,74.00
2022-07-29T17:54:01.507Z,74.30
2022-07-29T17:56:28.420Z,74.40
2022-07-29T17:58:55.370Z,74.50
2022-07-29T18:01:23.868Z,74.70
2022-07-29T18:03:50.921Z,75.00
2022-07-29T18:06:18.123Z,75.20
2022-07-29T18:08:47.613Z,75.30
2022-07-29T18:11:15.137Z,75.70
2022-07-29T18:13:42.195Z,76.50
2022-07-29T18:16:10.104Z,77.10
2022-07-29T18:18:37.048Z,77.70
2022-07-29T18:21:04.214Z,78.50
2022-07-29T18:23:31.480Z,79.00
2022-07-29T18:25:58.405Z,79.80
2022-07-29T18:28:28.534Z,80.50
2022-07-29T18:30:55.428Z,81.00
2022-07-29T18:33:22.917Z,81.40
2022-07-29T18:35:50.840Z,81.90
2022-07-29T18:38:17.841Z,82.30
2022-07-29T18:40:46.030Z,82.90
2022-07-29T18:43:13.740Z,83.20
2022-07-29T18:45:42.525Z,84.00
2022-07-29T18:48:11.912Z,85.20
2022-07-29T18:50:40.534Z,85.70
2022-07-29T18:53:07.619Z,86.70
2022-07-29T18:55:34.546Z,87.20
2022-07-29T18:58:01.422Z,88.30
2022-07-29T19:00:28.438Z,89.10
2022-07-29T19:02:55.845Z,90.00
2022-07-29T19:05:23.259Z,90.50
2022-07-29T19:07:50.137Z,90.80
2022-07-29T19:10:17.228Z,91.00
2022-07-29T19:12:44.162Z,91.40
2022-07-29T19:15:11.435Z,91.50
2022-07-29T19:17:38.915Z,91.70
2022-07-29T19:20:07.281Z,92.00
2022-07-29T19:22:34.527Z,92.10
2022-07-29T19:25:01.391Z,92.30
2022-07-29T19:27:28.303Z,92.40
2022-07-29T19:29:58.932Z,92.70
2022-07-29T19:32:26.554Z,92.90
2022-07-29T19:35:12.269Z,93.30
2022-07-29T19:37:39.222Z,93.80
2022-07-29T19:40:06.965Z,94.00
2022-07-29T19:42:33.968Z,94.50
2022-07-29T19:45:00.904Z,95.00
2022-07-29T19:47:27.849Z,95.40
2022-07-29T19:49:54.664Z,95.90
2022-07-29T19:52:21.531Z,96.10
2022-07-29T19:54:48.432Z,96.70
2022-07-29T19:57:15.297Z,97.30
2022-07-29T19:59:42.195Z,97.80
2022-07-29T20:02:12.442Z,98.30
2022-07-29T20:04:39.622Z,99.60
2022-07-29T20:07:06.758Z,99.60
2022-07-29T20:09:33.782Z,99.90
2022-07-29T20:12:00.677Z,99.90
2022-07-29T20:14:27.526Z,99.90
2022-07-29T20:16:54.542Z,99.90
2022-07-29T20:19:21.564Z,99.90
2022-07-29T20:21:48.486Z,99.90
2022-07-29T20:24:15.357Z,99.90
2022-07-29T20:26:42.231Z,99.90
2022-07-29T20:29:09.277Z,99.90
2022-07-29T20:31:36.241Z,99.90
2022-07-29T20:34:03.330Z,99.90
2022-07-29T20:36:30.263Z,99.90
2022-07-29T20:38:57.448Z,99.90
2022-07-29T20:41:24.350Z,99.90
2022-07-29T20:43:51.429Z,99.90
2022-07-29T20:46:18.548Z,99.90
2022-07-29T20:48:46.970Z,99.90
2022-07-29T20:51:14.509Z,99.90
2022-07-29T20:53:41.534Z,99.90
2022-07-29T20:56:08.455Z,99.90
2022-07-29T20:58:36.596Z,99.90
2022-07-29T21:01:03.998Z,99.90
2022-07-29T21:03:30.936Z,99.90
2022-07-29T21:05:57.786Z,99.90
2022-07-29T21:08:24.724Z,99.90
2022-07-29T21:10:51.602Z,99.90
2022-07-29T21:13:19.776Z,99.90
2022-07-29T21:15:49.660Z,99.90
2022-07-29T21:18:36.882Z,99.90
2022-07-29T21:21:04.774Z,99.90
2022-07-29T21:23:31.690Z,99.90
2022-07-29T21:25:58.664Z,99.90
2022-07-29T21:28:40.854Z,99.90
2022-07-29T21:31:12.498Z,99.90
2022-07-29T21:33:41.017Z,99.90
2022-07-29T21:36:35.408Z,99.90
2022-07-29T21:38:55.546Z,99.90
2022-07-29T21:41:22.547Z,99.90
2022-07-29T21:43:49.567Z,99.90
2022-07-29T21:46:18.147Z,99.90
2022-07-29T21:48:45.149Z,99.90
2022-07-29T21:51:12.152Z,99.90
2022-07-29T21:53:39.015Z,99.90
2022-07-29T21:56:07.650Z,99.90
2022-07-29T21:58:41.377Z,99.90
2022-07-29T22:01:08.264Z,99.90
2022-07-29T22:03:35.191Z,99.90
2022-07-29T22:06:02.084Z,99.90
2022-07-29T22:08:29.002Z,99.90
2022-07-29T22:10:55.898Z,99.90
2022-07-29T22:13:22.755Z,99.90
2022-07-29T22:15:50.830Z,99.90
2022-07-29T22:18:21.074Z,99.90
2022-07-29T22:20:49.429Z,99.90
2022-07-29T22:23:16.265Z,99.90
2022-07-29T22:25:43.161Z,99.90
2022-07-29T22:28:10.036Z,99.90
2022-07-29T22:30:37.116Z,99.90
2022-07-29T22:33:04.135Z,99.90
2022-07-29T22:35:31.010Z,99.90
2022-07-29T22:37:57.872Z,99.90
2022-07-29T22:40:30.939Z,99.90
2022-07-29T22:42:59.659Z,99.90
2022-07-29T22:45:26.520Z,99.90
2022-07-29T22:47:59.141Z,99.90
2022-07-29T22:50:26.538Z,99.90
2022-07-29T22:52:53.386Z,99.90
2022-07-29T22:55:20.323Z,99.90
2022-07-29T22:57:47.185Z,99.90
2022-07-29T23:00:14.470Z,99.90
2022-07-29T23:02:41.748Z,99.90
2022-07-29T23:05:09.134Z,99.90
2022-07-29T23:07:36.160Z,99.90
2022-07-29T23:10:03.144Z,99.90
2022-07-29T23:12:30.030Z,99.90
2022-07-29T23:14:56.919Z,99.90
2022-07-29T23:17:23.833Z,99.90
2022-07-29T23:19:50.771Z,99.90
2022-07-29T23:22:18.531Z,99.90
2022-07-29T23:24:45.614Z,99.90
2022-07-29T23:27:12.468Z,99.90
2022-07-29T23:29:39.469Z,99.90
2022-07-29T23:32:06.444Z,99.90
2022-07-29T23:34:33.278Z,99.90
2022-07-29T23:37:00.360Z,99.90
2022-07-29T23:39:27.401Z,99.90
2022-07-29T23:41:54.270Z,99.90
2022-07-29T23:44:21.356Z,99.90
2022-07-29T23:46:48.243Z,99.90
2022-07-29T23:49:15.350Z,99.90
2022-07-29T23:51:42.277Z,99.90
2022-07-29T23:54:09.162Z,99.90
2022-07-29T23:56:36.038Z,99.90
2022-07-29T23:59:05.767Z,99.90
